Time;durP1;ratioP1;P1;durP2;ratioP2;P2;SDS_P1;SDS_P2;PMS_P1;PMS_P2;Temp;Humidity;BMP_temperature;BMP_pressure;BME280_temperature;BME280_humidity;BME280_pressure;Samples;Min_cycle;Max_cycle;Signal;HPM_P1;HPM_P2
2023/01/05 00:00:05;;;;;;;3.40;1.60;;;;;;;8.78;100.00;99036.47;4943729;28;20050;-63
2023/01/05 00:03:16;;;;;;;2.38;1.40;;;;;;;8.84;100.00;99032.69;4942928;28;20431;-64
2023/01/05 00:06:06;;;;;;;1.85;1.00;;;;;;;8.93;98.85;99032.16;4944233;29;20043;-63
2023/01/05 00:08:51;;;;;;;1.80;0.98;;;;;;;9.01;99.11;99034.31;4951781;29;20407;-65
2023/01/05 00:23:58;;;;;;;1.08;0.43;;;;;;;9.69;96.41;99021.66;4951929;29;20084;-63
2023/01/05 00:26:43;;;;;;;1.30;0.50;;;;;;;9.60;97.37;99015.19;4951966;29;20047;-64
2023/01/05 00:29:28;;;;;;;1.23;0.50;;;;;;;9.65;96.97;99009.66;4940952;29;20475;-64
2023/01/05 00:32:13;;;;;;;0.40;0.28;;;;;;;9.83;95.92;99006.84;4939317;29;20507;-64
2023/01/05 00:35:01;;;;;;;1.02;0.30;;;;;;;9.79;96.08;99002.75;4938551;29;20055;-64
2023/01/05 00:37:46;;;;;;;0.52;0.20;;;;;;;9.76;97.06;98995.09;4934907;29;20058;-63
2023/01/05 00:40:31;;;;;;;0.82;0.35;;;;;;;9.86;96.34;99004.91;4951245;29;20035;-62
2023/01/05 00:43:16;;;;;;;0.85;0.40;;;;;;;9.90;96.67;99002.09;4936029;29;20051;-64
2023/01/05 00:46:01;;;;;;;0.95;0.38;;;;;;;9.94;96.76;99008.81;4924514;29;20133;-64
2023/01/05 00:48:46;;;;;;;0.47;0.20;;;;;;;10.04;96.02;98994.22;4951463;29;20054;-64
2023/01/05 00:51:31;;;;;;;0.60;0.35;;;;;;;10.03;96.90;98997.78;4921415;29;20638;-64
2023/01/05 00:54:16;;;;;;;0.38;0.10;;;;;;;10.00;97.47;98966.56;4936376;29;20059;-65
2023/01/05 00:57:01;;;;;;;0.68;0.30;;;;;;;10.03;97.79;98989.06;4941904;29;20121;-64
2023/01/05 00:59:46;;;;;;;0.50;0.25;;;;;;;10.01;97.74;98994.41;4936780;29;20040;-63
2023/01/05 01:02:32;;;;;;;0.30;0.20;;;;;;;10.02;97.77;98977.75;4939135;28;20057;-63
2023/01/05 01:05:17;;;;;;;0.50;0.20;;;;;;;9.98;97.93;98974.50;4951358;28;20590;-64
2023/01/05 01:08:02;;;;;;;1.65;0.20;;;;;;;10.00;98.22;98978.81;4936592;29;20043;-63
2023/01/05 01:10:47;;;;;;;0.40;0.10;;;;;;;10.05;97.50;98979.34;4935437;29;20126;-63
2023/01/05 01:13:32;;;;;;;0.22;0.20;;;;;;;10.14;96.96;98980.53;4951529;29;20058;-63
2023/01/05 01:16:16;;;;;;;0.80;0.20;;;;;;;10.20;96.05;98974.94;4939417;29;20096;-62
2023/01/05 01:19:01;;;;;;;0.20;0.10;;;;;;;10.18;96.53;98972.41;4936406;29;20047;-65
2023/01/05 01:21:46;;;;;;;0.93;0.30;;;;;;;10.25;95.81;98980.69;4936076;29;20049;-64
2023/01/05 01:24:31;;;;;;;1.23;0.25;;;;;;;10.18;96.19;98982.88;4943322;29;20450;-64
2023/01/05 01:27:15;;;;;;;0.90;0.22;;;;;;;10.18;96.32;98982.88;4943904;29;20047;-64
2023/01/05 01:30:00;;;;;;;1.35;0.30;;;;;;;10.23;96.27;98982.59;4948589;29;20051;-63
2023/01/05 01:32:45;;;;;;;0.10;0.10;;;;;;;10.29;96.41;98995.28;4936237;29;20047;-64
2023/01/05 01:35:30;;;;;;;0.73;0.08;;;;;;;10.25;96.01;99006.88;4939488;29;20046;-64
2023/01/05 01:38:16;;;;;;;0.35;0.10;;;;;;;10.28;96.17;98992.75;4936786;29;20051;-64
2023/01/05 01:41:01;;;;;;;0.85;0.20;;;;;;;10.30;96.36;98993.47;4946268;28;20488;-63
2023/01/05 01:43:50;;;;;;;0.30;0.10;;;;;;;10.30;96.40;98983.88;4944248;29;20054;-63
2023/01/05 01:46:37;;;;;;;0.85;0.10;;;;;;;10.29;96.40;98976.97;4950826;29;20079;-64
2023/01/05 01:49:22;;;;;;;0.10;0.03;;;;;;;10.30;96.67;98980.41;4936585;29;20051;-63
2023/01/05 01:52:08;;;;;;;0.20;0.10;;;;;;;10.31;96.59;98974.25;4946328;29;20452;-63
2023/01/05 01:54:53;;;;;;;0.28;0.10;;;;;;;10.32;96.41;98974.13;4935944;29;20090;-64
2023/01/05 01:57:38;;;;;;;0.20;0.10;;;;;;;10.34;96.46;98967.03;4936396;29;20053;-63
2023/01/05 02:00:23;;;;;;;0.40;0.22;;;;;;;10.43;96.24;98970.00;4936478;29;20051;-63
2023/01/05 02:03:09;;;;;;;0.60;0.20;;;;;;;10.35;96.65;98963.47;4938027;29;20043;-63
2023/01/05 02:05:54;;;;;;;1.15;0.10;;;;;;;10.40;96.22;98957.06;4950368;29;20042;-63
2023/01/05 02:08:39;;;;;;;0.10;0.10;;;;;;;10.49;95.62;98945.19;4935819;29;20105;-63
2023/01/05 02:11:38;;;;;;;1.85;0.35;;;;;;;10.43;96.16;98928.91;4950272;29;20039;-64
2023/01/05 02:14:43;;;;;;;0.10;0.00;;;;;;;10.44;96.22;98930.59;4950778;28;20062;-64
2023/01/05 02:17:37;;;;;;;0.10;0.10;;;;;;;10.47;96.28;98935.69;4936206;29;20117;-63
2023/01/05 02:20:41;;;;;;;0.32;0.10;;;;;;;10.57;95.59;98921.97;4939086;29;20043;-63
2023/01/05 02:24:02;;;;;;;0.20;0.20;;;;;;;10.58;95.57;98900.91;4939207;29;20492;-65
2023/01/05 02:27:00;;;;;;;0.35;0.10;;;;;;;10.62;95.54;98877.97;4950846;28;20503;-65
2023/01/05 02:30:02;;;;;;;0.63;0.10;;;;;;;10.58;95.97;98894.81;4929528;29;20039;-64
2023/01/05 02:32:52;;;;;;;1.17;0.10;;;;;;;10.59;95.87;98879.00;4927132;29;20459;-64
2023/01/05 02:35:42;;;;;;;0.22;0.10;;;;;;;10.52;96.22;98885.59;4938623;29;20426;-64
2023/01/05 02:38:51;;;;;;;0.30;0.10;;;;;;;10.48;96.61;98871.00;4952448;29;20039;-63
2023/01/05 02:41:54;;;;;;;0.50;0.10;;;;;;;10.55;95.89;98853.09;4952118;28;20470;-65
2023/01/05 02:44:40;;;;;;;0.10;0.00;;;;;;;10.55;95.93;98853.09;4931621;29;20433;-64
2023/01/05 02:47:24;;;;;;;0.30;0.10;;;;;;;10.65;95.03;98856.81;4915001;29;20051;-66
2023/01/05 02:50:16;;;;;;;0.40;0.00;;;;;;;10.66;94.81;98861.09;4924313;29;20049;-63
2023/01/05 02:53:29;;;;;;;0.88;0.20;;;;;;;10.66;94.78;98863.72;4930270;29;20097;-65
2023/01/05 02:56:17;;;;;;;0.50;0.10;;;;;;;10.75;93.29;98848.31;4952255;29;20101;-63
2023/01/05 02:59:23;;;;;;;0.43;0.10;;;;;;;10.78;93.21;98832.38;4952525;28;20113;-63
2023/01/05 03:02:14;;;;;;;0.38;0.10;;;;;;;10.70;93.40;98848.63;4951534;28;20046;-65
2023/01/05 03:05:09;;;;;;;2.15;0.20;;;;;;;10.67;94.05;98854.06;4931459;29;20047;-63
2023/01/05 03:08:05;;;;;;;0.60;0.30;;;;;;;10.70;93.67;98851.25;4923442;29;20415;-63
2023/01/05 03:14:43;;;;;;;0.70;0.10;;;;;;;10.79;92.37;98840.13;4911036;29;20046;-63
2023/01/05 03:17:32;;;;;;;0.10;0.00;;;;;;;10.74;92.61;98849.25;4949201;29;20057;-63
2023/01/05 03:20:22;;;;;;;0.70;0.10;;;;;;;10.83;91.65;98846.00;4937958;29;20065;-63
2023/01/05 03:35:36;;;;;;;0.20;0.10;;;;;;;11.00;89.97;98830.91;4950969;28;20062;-63
2023/01/05 03:38:33;;;;;;;0.20;0.10;;;;;;;10.98;90.07;98830.16;4943829;29;20122;-64
2023/01/05 03:41:22;;;;;;;1.30;0.00;;;;;;;11.03;89.81;98841.19;4940970;29;20055;-62
2023/01/05 03:44:07;;;;;;;0.90;0.00;;;;;;;11.03;89.00;98831.50;4926652;29;20047;-63
2023/01/05 03:46:55;;;;;;;0.08;0.00;;;;;;;11.03;89.42;98822.81;4945308;29;20039;-63
2023/01/05 03:49:40;;;;;;;0.20;0.00;;;;;;;11.03;89.32;98828.88;4924167;29;20410;-62
2023/01/05 03:52:26;;;;;;;0.65;0.05;;;;;;;10.96;89.26;98806.69;4931593;29;20047;-63
2023/01/05 03:55:10;;;;;;;0.03;0.00;;;;;;;10.92;89.69;98799.97;4950847;28;20051;-64
2023/01/05 03:57:55;;;;;;;0.00;0.00;;;;;;;10.98;88.80;98783.84;4946795;28;20043;-64
2023/01/05 04:00:40;;;;;;;0.20;0.10;;;;;;;11.00;88.02;98818.63;4949291;29;20062;-64
2023/01/05 04:03:28;;;;;;;0.63;0.10;;;;;;;11.08;87.26;98797.94;4931681;29;20035;-65
2023/01/05 04:06:13;;;;;;;0.05;0.00;;;;;;;11.06;86.45;98785.91;4937821;29;20043;-64
2023/01/05 04:08:58;;;;;;;1.48;0.05;;;;;;;11.08;86.34;98784.03;4935368;29;20039;-65
2023/01/05 04:11:43;;;;;;;0.22;0.05;;;;;;;11.08;85.03;98781.41;4928255;29;20066;-63
2023/01/05 04:14:28;;;;;;;3.92;0.20;;;;;;;11.05;85.73;98779.00;4937965;29;20050;-63
2023/01/05 04:17:14;;;;;;;0.40;0.10;;;;;;;11.05;85.02;98779.00;4937734;29;20395;-63
2023/01/05 04:20:00;;;;;;;0.40;0.25;;;;;;;11.08;84.58;98771.72;4950479;28;20043;-63
2023/01/05 04:22:45;;;;;;;0.30;0.10;;;;;;;11.11;84.07;98770.69;4939569;29;20047;-64
2023/01/05 04:25:30;;;;;;;0.00;0.00;;;;;;;11.06;84.57;98770.19;4940944;28;20425;-64
2023/01/05 04:28:24;;;;;;;0.52;0.15;;;;;;;11.08;84.18;98749.94;4951325;29;20116;-63
2023/01/05 04:31:13;;;;;;;0.17;0.08;;;;;;;11.04;84.55;98762.41;4925504;29;20070;-62
2023/01/05 04:33:58;;;;;;;0.10;0.00;;;;;;;11.03;84.28;98765.97;4939583;29;20506;-64
2023/01/05 04:36:46;;;;;;;0.25;0.10;;;;;;;11.05;83.84;98755.41;4940159;29;20406;-64
2023/01/05 04:39:33;;;;;;;0.20;0.05;;;;;;;11.11;83.43;98756.75;4927385;29;20123;-64
2023/01/05 04:42:19;;;;;;;0.13;0.00;;;;;;;11.07;83.72;98753.50;4943687;29;20043;-64
2023/01/05 04:45:11;;;;;;;0.53;0.13;;;;;;;11.07;84.14;98758.72;4933937;29;20081;-64
2023/01/05 04:47:56;;;;;;;0.65;0.20;;;;;;;11.07;84.12;98756.97;4951028;29;20134;-63
2023/01/05 04:50:42;;;;;;;0.22;0.10;;;;;;;11.08;84.09;98748.13;4926812;29;20139;-62
2023/01/05 04:53:27;;;;;;;0.17;0.10;;;;;;;11.07;84.37;98753.50;4934820;28;20090;-63
2023/01/05 04:56:12;;;;;;;1.85;0.10;;;;;;;11.04;84.66;98741.44;4949998;28;20043;-64
2023/01/05 04:59:00;;;;;;;0.20;0.10;;;;;;;11.00;85.11;98744.41;4936345;29;20090;-64
2023/01/05 05:01:46;;;;;;;0.20;0.00;;;;;;;11.02;85.02;98737.25;4926272;29;20083;-64
2023/01/05 05:04:33;;;;;;;0.22;0.10;;;;;;;11.04;84.93;98738.84;4933836;29;20050;-63
2023/01/05 05:07:19;;;;;;;0.10;0.00;;;;;;;11.04;84.99;98730.13;4933510;29;20051;-64
2023/01/05 05:10:06;;;;;;;0.03;0.00;;;;;;;11.00;85.32;98726.88;4935726;29;20078;-63
2023/01/05 05:12:51;;;;;;;0.03;0.00;;;;;;;11.06;84.93;98720.38;4937425;29;20050;-64
2023/01/05 05:15:35;;;;;;;0.45;0.05;;;;;;;11.05;85.55;98711.66;4936520;29;20039;-63
2023/01/05 05:18:23;;;;;;;0.20;0.10;;;;;;;11.07;84.91;98725.50;4928896;29;20048;-63
2023/01/05 05:21:09;;;;;;;0.30;0.20;;;;;;;11.01;85.36;98712.00;4949485;29;20467;-63
2023/01/05 05:23:55;;;;;;;0.90;0.10;;;;;;;11.02;85.44;98703.16;4929986;28;20043;-66
2023/01/05 05:26:39;;;;;;;0.15;0.00;;;;;;;11.01;85.54;98704.97;4946012;29;20117;-64
2023/01/05 05:29:24;;;;;;;0.80;0.10;;;;;;;11.06;85.14;98710.72;4950471;29;20094;-64
2023/01/05 05:32:09;;;;;;;0.10;0.00;;;;;;;11.09;85.05;98701.78;4950421;29;20408;-63
2023/01/05 05:34:53;;;;;;;0.30;0.00;;;;;;;11.16;84.39;98705.63;4949658;28;20070;-64
2023/01/05 05:37:38;;;;;;;0.10;0.00;;;;;;;11.18;84.54;98689.81;4935837;29;20059;-64
2023/01/05 05:40:25;;;;;;;0.43;0.22;;;;;;;11.25;87.58;98695.44;4956671;28;20039;-64
2023/01/05 05:43:09;;;;;;;0.85;0.10;;;;;;;11.29;86.67;98692.47;4939242;29;20035;-64
2023/01/05 05:45:54;;;;;;;0.35;0.10;;;;;;;11.18;85.36;98680.16;4940647;29;20111;-64
2023/01/05 05:48:38;;;;;;;0.77;0.20;;;;;;;11.09;86.20;98684.28;4949316;28;20498;-63
2023/01/05 05:51:24;;;;;;;1.10;0.00;;;;;;;11.28;86.04;98684.72;4939456;29;20044;-65
2023/01/05 05:54:08;;;;;;;0.17;0.10;;;;;;;11.15;86.07;98677.75;4954118;29;20063;-66
2023/01/05 05:56:54;;;;;;;0.30;0.10;;;;;;;11.21;85.57;98685.16;4918816;29;20147;-66
2023/01/05 05:59:38;;;;;;;1.23;0.20;;;;;;;11.30;87.14;98675.81;4950070;29;20487;-64
2023/01/05 06:02:23;;;;;;;0.75;0.22;;;;;;;11.27;85.77;98673.41;4939580;29;20436;-64
2023/01/05 06:05:08;;;;;;;0.80;0.20;;;;;;;11.25;85.62;98670.06;4951549;29;20039;-65
2023/01/05 06:07:52;;;;;;;1.20;0.20;;;;;;;11.20;85.03;98682.66;4954064;29;20047;-64
2023/01/05 06:10:40;;;;;;;0.20;0.13;;;;;;;11.15;85.13;98684.78;4932991;29;20047;-65
2023/01/05 06:13:26;;;;;;;2.08;0.22;;;;;;;11.16;85.48;98674.16;4951904;29;20082;-65
2023/01/05 06:16:11;;;;;;;0.10;0.10;;;;;;;11.17;84.72;98677.63;4953753;29;20039;-66
2023/01/05 06:18:55;;;;;;;1.20;0.10;;;;;;;11.12;85.06;98680.59;4934300;29;20039;-67
2023/01/05 06:21:40;;;;;;;0.17;0.10;;;;;;;11.07;85.15;98675.69;4938811;29;20394;-66
2023/01/05 06:24:25;;;;;;;0.10;0.10;;;;;;;11.08;84.89;98684.41;4931126;29;20043;-66
2023/01/05 06:27:10;;;;;;;0.30;0.05;;;;;;;11.16;84.55;98684.66;4960450;28;20130;-67
2023/01/05 06:29:54;;;;;;;0.30;0.10;;;;;;;11.09;84.16;98691.31;4953905;29;20043;-66
2023/01/05 06:32:39;;;;;;;0.45;0.10;;;;;;;11.11;84.33;98693.81;4953722;29;20514;-66
2023/01/05 06:35:24;;;;;;;0.60;0.10;;;;;;;11.18;83.67;98690.63;4953497;29;20073;-66
2023/01/05 06:38:09;;;;;;;0.73;0.10;;;;;;;11.19;84.08;98689.72;4953517;29;20039;-66
2023/01/05 06:40:55;;;;;;;0.55;0.10;;;;;;;11.17;83.97;98686.34;4941962;29;20383;-66
2023/01/05 06:43:39;;;;;;;1.00;0.20;;;;;;;11.18;83.86;98674.09;4951535;29;20039;-66
2023/01/05 06:46:24;;;;;;;0.60;0.10;;;;;;;11.13;84.16;98678.81;4939311;29;20043;-66
2023/01/05 06:49:11;;;;;;;0.35;0.10;;;;;;;11.14;84.33;98683.09;4949494;29;20110;-66
2023/01/05 06:51:55;;;;;;;0.50;0.22;;;;;;;11.19;83.80;98679.22;4954305;28;20050;-66
2023/01/05 06:54:41;;;;;;;0.38;0.10;;;;;;;11.18;83.88;98682.78;4952527;29;20058;-66
2023/01/05 06:57:25;;;;;;;0.20;0.08;;;;;;;11.22;83.87;98688.63;4953269;29;20043;-67
2023/01/05 07:00:11;;;;;;;0.10;0.00;;;;;;;11.27;83.31;98683.06;4932953;29;20055;-67
2023/01/05 07:02:55;;;;;;;0.17;0.00;;;;;;;11.23;83.65;98679.00;4949130;29;20043;-67
2023/01/05 07:05:40;;;;;;;0.55;0.10;;;;;;;11.28;83.31;98685.56;4953130;29;20043;-66
2023/01/05 07:08:25;;;;;;;0.28;0.15;;;;;;;11.31;83.20;98679.28;4952667;28;20126;-66
2023/01/05 07:11:10;;;;;;;0.43;0.10;;;;;;;11.31;83.45;98685.34;4939081;29;20054;-66
2023/01/05 07:13:54;;;;;;;0.10;0.00;;;;;;;11.29;83.35;98674.13;4952732;29;20043;-66
2023/01/05 07:16:39;;;;;;;0.22;0.10;;;;;;;11.34;83.56;98677.25;4952945;29;20411;-66
2023/01/05 07:19:25;;;;;;;0.17;0.10;;;;;;;11.32;83.83;98676.53;4944967;29;20098;-66
2023/01/05 07:22:09;;;;;;;1.55;0.00;;;;;;;11.34;83.78;98673.81;4941437;29;20043;-66
2023/01/05 07:24:54;;;;;;;0.30;0.10;;;;;;;11.36;83.81;98677.13;4952508;29;20039;-66
2023/01/05 07:27:38;;;;;;;0.32;0.10;;;;;;;11.33;83.78;98669.50;4952562;28;20072;-67
2023/01/05 07:30:23;;;;;;;0.75;0.10;;;;;;;11.37;83.90;98672.72;4952673;29;20101;-64
2023/01/05 07:33:07;;;;;;;0.10;0.00;;;;;;;11.33;84.17;98669.50;4952930;29;20129;-65
2023/01/05 07:35:52;;;;;;;0.13;0.03;;;;;;;11.29;84.61;98666.25;4937998;29;20053;-65
2023/01/05 07:38:36;;;;;;;0.10;0.10;;;;;;;11.28;84.88;98664.59;4947722;29;20143;-65
2023/01/05 07:41:21;;;;;;;0.08;0.08;;;;;;;11.29;84.97;98665.44;4952081;29;20610;-65
2023/01/05 07:44:06;;;;;;;0.10;0.10;;;;;;;11.29;84.97;98683.78;4951555;29;20051;-65
2023/01/05 07:46:51;;;;;;;0.25;0.10;;;;;;;11.36;84.46;98666.63;4952127;28;20039;-66
2023/01/05 07:49:35;;;;;;;0.30;0.10;;;;;;;11.36;84.79;98687.63;4952363;29;20093;-66
2023/01/05 07:52:20;;;;;;;0.20;0.10;;;;;;;11.38;84.63;98677.84;4952278;29;20047;-66
2023/01/05 07:55:05;;;;;;;0.50;0.10;;;;;;;11.39;84.63;98679.53;4951855;29;20118;-65
2023/01/05 07:57:51;;;;;;;0.20;0.10;;;;;;;11.46;84.25;98665.03;4951429;29;20070;-66
2023/01/05 08:00:35;;;;;;;0.47;0.10;;;;;;;11.45;84.27;98679.09;4952252;29;20047;-66
2023/01/05 08:03:20;;;;;;;0.50;0.20;;;;;;;11.45;84.57;98681.72;4951963;29;20532;-66
2023/01/05 08:06:09;;;;;;;0.35;0.20;;;;;;;11.48;84.38;98685.88;4920416;29;20480;-64
2023/01/05 08:08:55;;;;;;;0.60;0.10;;;;;;;11.58;83.79;98670.31;4949586;29;20039;-67
2023/01/05 08:11:39;;;;;;;0.40;0.10;;;;;;;11.52;83.80;98668.97;4951631;28;20047;-66
2023/01/05 08:14:24;;;;;;;0.52;0.20;;;;;;;11.57;83.59;98682.59;4951790;28;20134;-67
2023/01/05 08:17:09;;;;;;;0.20;0.10;;;;;;;11.58;83.56;98675.56;4951846;29;20078;-66
2023/01/05 08:19:53;;;;;;;0.25;0.10;;;;;;;11.60;83.58;98673.66;4941112;29;20043;-66
2023/01/05 08:22:38;;;;;;;1.10;0.20;;;;;;;11.58;83.98;98681.66;4937216;29;20043;-66
2023/01/05 08:25:23;;;;;;;0.90;0.25;;;;;;;11.61;83.75;98682.34;4944637;29;20058;-66
2023/01/05 08:28:08;;;;;;;0.10;0.00;;;;;;;11.60;83.75;98678.91;4940827;29;20055;-66
2023/01/05 08:30:58;;;;;;;0.50;0.10;;;;;;;11.59;84.16;98685.09;4951386;29;20082;-66
2023/01/05 08:33:43;;;;;;;0.00;0.00;;;;;;;11.57;84.46;98681.75;4943337;29;20142;-66
2023/01/05 08:36:30;;;;;;;0.10;0.10;;;;;;;11.58;84.24;98686.06;4952080;29;20515;-66
2023/01/05 08:39:14;;;;;;;1.00;0.10;;;;;;;11.64;84.32;98680.34;4948489;29;20106;-66
2023/01/05 08:41:59;;;;;;;0.22;0.10;;;;;;;11.61;84.69;98677.94;4951262;29;20058;-66
2023/01/05 08:44:43;;;;;;;0.55;0.20;;;;;;;11.57;85.05;98681.75;4943790;29;20546;-66
2023/01/05 08:47:28;;;;;;;0.38;0.10;;;;;;;11.56;84.88;98678.28;4951594;29;20113;-66
2023/01/05 08:50:13;;;;;;;0.20;0.10;;;;;;;11.53;85.16;98693.41;4935746;29;20558;-66
2023/01/05 08:52:58;;;;;;;0.30;0.10;;;;;;;11.49;86.33;98694.59;4951297;29;20063;-66
2023/01/05 08:55:42;;;;;;;0.32;0.10;;;;;;;11.55;85.60;98678.41;4951031;29;20145;-66
2023/01/05 08:58:27;;;;;;;1.65;0.10;;;;;;;11.55;86.12;98691.53;4950883;29;20043;-65
2023/01/05 09:01:17;;;;;;;0.55;0.15;;;;;;;11.51;86.63;98690.91;4950635;29;20107;-67
2023/01/05 09:04:02;;;;;;;0.63;0.05;;;;;;;11.46;87.02;98693.88;4955176;28;20126;-67
2023/01/05 09:06:47;;;;;;;0.95;0.30;;;;;;;11.46;87.29;98698.28;4930511;29;20054;-66
2023/01/05 09:09:32;;;;;;;0.45;0.10;;;;;;;11.49;87.12;98692.00;4950676;29;20055;-67
2023/01/05 09:12:16;;;;;;;0.57;0.20;;;;;;;11.50;87.02;98691.03;4950441;29;20130;-65
2023/01/05 09:15:02;;;;;;;0.57;0.20;;;;;;;11.46;87.50;98695.66;4936180;29;20039;-65
2023/01/05 09:17:46;;;;;;;0.20;0.15;;;;;;;11.42;88.05;98705.56;4950539;29;20047;-66
2023/01/05 09:20:31;;;;;;;0.20;0.10;;;;;;;11.37;88.98;98697.19;4938635;29;20057;-67
2023/01/05 09:23:16;;;;;;;1.17;0.00;;;;;;;11.34;89.71;98705.28;4950418;29;20035;-65
2023/01/05 09:26:03;;;;;;;1.23;0.10;;;;;;;11.31;90.31;98700.25;4950849;28;20058;-66
2023/01/05 09:28:47;;;;;;;0.20;0.08;;;;;;;11.30;90.49;98698.56;4950624;28;20047;-66
2023/01/05 09:31:33;;;;;;;0.22;0.10;;;;;;;11.25;90.92;98698.91;4950636;29;20043;-66
2023/01/05 09:34:18;;;;;;;0.20;0.10;;;;;;;11.27;91.23;98704.03;4950343;29;20662;-66
2023/01/05 09:37:02;;;;;;;0.30;0.10;;;;;;;11.29;91.52;98705.59;4950466;29;20055;-66
2023/01/05 09:39:47;;;;;;;1.95;0.77;;;;;;;11.22;92.93;98707.00;4950722;29;20067;-66
2023/01/05 09:42:35;;;;;;;0.43;0.30;;;;;;;11.21;92.90;98715.81;4950769;29;20067;-65
2023/01/05 09:45:25;;;;;;;2.05;0.20;;;;;;;11.20;92.92;98708.88;4936164;29;20051;-65
2023/01/05 09:48:13;;;;;;;0.22;0.10;;;;;;;11.18;93.43;98714.25;4935824;29;20509;-66
2023/01/05 09:50:58;;;;;;;0.32;0.08;;;;;;;11.15;93.76;98719.69;4950708;29;20081;-66
2023/01/05 09:53:44;;;;;;;2.50;0.75;;;;;;;11.11;94.49;98728.75;4939018;29;20055;-66
2023/01/05 09:56:33;;;;;;;0.50;0.10;;;;;;;11.13;94.79;98729.44;4950224;29;20270;-66
2023/01/05 09:59:18;;;;;;;0.80;0.30;;;;;;;10.91;98.16;98744.09;4950159;29;20057;-65
2023/01/05 10:02:16;;;;;;;0.20;0.00;;;;;;;10.56;100.00;98739.53;4940215;28;20126;-66
2023/01/05 10:05:04;;;;;;;0.47;0.10;;;;;;;10.34;100.00;98738.34;4949500;28;20245;-64
2023/01/05 10:07:59;;;;;;;0.40;0.15;;;;;;;10.02;100.00;98734.34;4939826;29;20123;-66
2023/01/05 10:13:01;;;;;;;0.90;0.30;;;;;;;9.62;100.00;98748.28;4949964;29;20637;-65
2023/01/05 10:14:16;;;;;;;0.93;0.13;;;;;;;9.42;100.00;98747.78;4938114;29;20402;-66
2023/01/05 10:17:01;;;;;;;0.00;0.00;;;;;;;9.28;100.00;98740.00;4950491;29;20051;-65
2023/01/05 10:19:47;;;;;;;1.75;0.10;;;;;;;9.15;100.00;98746.00;4949771;29;20417;-66
2023/01/05 10:23:10;;;;;;;1.30;0.17;;;;;;;9.17;100.00;98754.56;4941158;29;20117;-65
2023/01/05 10:26:11;;;;;;;1.27;0.10;;;;;;;9.22;100.00;98756.91;4920733;29;20043;-66
2023/01/05 10:29:09;;;;;;;0.73;0.08;;;;;;;9.20;100.00;98749.19;4950509;29;20044;-66
2023/01/05 10:32:08;;;;;;;0.52;0.17;;;;;;;9.19;100.00;98741.44;4950242;29;20499;-70
2023/01/05 10:35:17;;;;;;;2.10;0.30;;;;;;;9.08;100.00;98729.88;4946967;28;20051;-67
2023/01/05 10:38:10;;;;;;;2.05;0.30;;;;;;;9.12;100.00;98747.03;4931385;29;20106;-67
2023/01/05 10:41:00;;;;;;;;;;;;;;;9.19;100.00;98764.97;4955723;29;20129;-65
2023/01/05 10:44:26;;;;;;;0.70;0.20;;;;;;;9.13;100.00;98766.16;4949260;28;20642;-65
2023/01/05 10:47:12;;;;;;;2.10;0.35;;;;;;;9.05;100.00;98771.88;4941866;29;20065;-66
2023/01/05 10:49:58;;;;;;;2.70;0.63;;;;;;;8.95;100.00;98752.47;4954429;28;20050;-65
2023/01/05 10:52:44;;;;;;;0.77;0.20;;;;;;;9.03;100.00;98762.44;4938823;29;20046;-67
2023/01/05 10:55:31;;;;;;;5.13;0.38;;;;;;;8.94;100.00;98767.31;4953086;29;20063;-66
2023/01/05 10:58:21;;;;;;;1.92;0.40;;;;;;;8.85;100.00;98757.41;4938336;29;20504;-65
2023/01/05 11:01:23;;;;;;;1.45;0.30;;;;;;;8.89;100.00;98747.63;4953392;29;20058;-66
2023/01/05 11:04:16;;;;;;;0.43;0.20;;;;;;;8.98;100.00;98752.28;4951817;29;20147;-68
2023/01/05 11:07:05;;;;;;;1.67;0.20;;;;;;;9.02;100.00;98743.31;4952802;29;20054;-65
2023/01/05 11:09:50;;;;;;;2.50;0.30;;;;;;;9.09;100.00;98731.53;4952796;29;20055;-67
2023/01/05 11:12:36;;;;;;;2.30;0.32;;;;;;;8.93;100.00;98720.34;4938259;29;20495;-67
2023/01/05 11:15:21;;;;;;;1.83;0.28;;;;;;;9.06;100.00;98723.03;4942466;29;20149;-69
2023/01/05 11:18:17;;;;;;;1.50;0.30;;;;;;;9.08;100.00;98718.56;4951476;29;20043;-69
2023/01/05 11:21:12;;;;;;;3.70;0.70;;;;;;;9.20;98.86;98716.97;4951419;29;20055;-68
2023/01/05 11:23:58;;;;;;;1.55;0.30;;;;;;;9.27;97.23;98701.72;4950102;29;20109;-67
2023/01/05 11:26:52;;;;;;;2.42;0.75;;;;;;;9.28;97.56;98711.22;4952892;29;20487;-67
2023/01/05 11:29:37;;;;;;;2.42;0.30;;;;;;;9.27;97.43;98718.22;4952206;29;20085;-69
2023/01/05 11:32:22;;;;;;;1.85;0.40;;;;;;;9.21;96.40;98708.16;4952355;29;20039;-68
2023/01/05 11:35:30;;;;;;;3.00;0.50;;;;;;;9.31;94.66;98732.81;4945997;28;20145;-66
2023/01/05 11:38:27;;;;;;;3.22;0.57;;;;;;;9.30;93.77;98717.22;4935052;29;20055;-69
2023/01/05 11:41:13;;;;;;;2.20;0.40;;;;;;;9.31;93.74;98724.94;4948104;28;20047;-69
2023/01/05 11:43:59;;;;;;;3.47;0.60;;;;;;;9.34;91.37;98700.38;4949755;28;20414;-70
2023/01/05 11:46:44;;;;;;;3.97;0.68;;;;;;;9.48;91.08;98736.13;4944927;28;20519;-71
2023/01/05 11:49:28;;;;;;;1.48;0.55;;;;;;;9.43;90.05;98732.94;4949375;28;20051;-68
2023/01/05 11:52:37;;;;;;;3.20;0.45;;;;;;;9.44;90.24;98722.38;4947403;28;20122;-68
2023/01/05 11:55:38;;;;;;;4.32;0.68;;;;;;;9.44;89.52;98718.94;4936830;28;20102;-68
2023/01/05 11:58:50;;;;;;;1.38;0.32;;;;;;;9.42;90.51;98729.47;4932879;29;20046;-69
2023/01/05 12:02:09;;;;;;;2.08;0.43;;;;;;;9.57;89.03;98722.44;4947010;28;20047;-68
2023/01/05 12:04:59;;;;;;;2.92;0.75;;;;;;;9.59;89.65;98711.88;4936819;29;20051;-70
2023/01/05 12:07:52;;;;;;;2.33;0.60;;;;;;;9.55;88.72;98719.06;4942654;28;20047;-70
2023/01/05 12:10:49;;;;;;;2.42;0.47;;;;;;;9.58;88.37;98720.66;4949337;28;20051;-68
2023/01/05 12:13:49;;;;;;;2.20;0.73;;;;;;;9.65;86.61;98693.16;4946344;28;20035;-71
2023/01/05 12:16:54;;;;;;;2.05;0.32;;;;;;;9.68;88.25;98697.31;4948911;28;20047;-71
2023/01/05 12:19:53;;;;;;;2.92;0.70;;;;;;;9.70;86.57;98711.16;4948355;28;20051;-71
2023/01/05 12:23:05;;;;;;;1.35;0.40;;;;;;;9.75;87.10;98716.94;4934610;29;20058;-70
2023/01/05 12:26:08;;;;;;;3.00;0.68;;;;;;;9.74;86.53;98707.41;4946359;28;20047;-70
2023/01/05 12:29:25;;;;;;;5.30;0.60;;;;;;;9.68;87.51;98711.25;4943273;28;20042;-69
2023/01/05 12:32:35;;;;;;;2.38;0.57;;;;;;;9.71;87.30;98699.78;4849687;29;20061;-69
2023/01/05 12:36:05;;;;;;;3.03;0.70;;;;;;;9.63;87.44;98715.94;4878691;29;20057;-72
2023/01/05 12:39:29;;;;;;;1.88;0.70;;;;;;;9.81;87.33;98713.09;4850270;29;20539;-69
2023/01/05 12:43:02;;;;;;;3.60;1.05;;;;;;;9.74;86.69;98708.22;4867739;29;20056;-71
2023/01/05 12:46:09;;;;;;;2.03;0.55;;;;;;;9.91;85.64;98690.56;4818522;29;20065;-70
2023/01/05 12:49:09;;;;;;;2.97;0.80;;;;;;;10.05;84.98;98691.44;4831571;29;20061;-69
2023/01/05 12:52:08;;;;;;;4.15;0.80;;;;;;;9.92;84.60;98673.91;4832828;29;20058;-71
2023/01/05 12:55:39;;;;;;;4.20;0.50;;;;;;;9.95;83.32;98665.91;4832978;29;20113;-70
2023/01/05 12:58:30;;;;;;;3.22;0.65;;;;;;;10.12;83.03;98676.16;4832301;29;20129;-68
2023/01/05 13:01:22;;;;;;;2.10;0.75;;;;;;;10.24;81.03;98667.44;4840121;29;20065;-69
2023/01/05 13:04:36;;;;;;;3.25;0.65;;;;;;;10.29;79.12;98678.44;4889489;29;20057;-69
2023/01/05 13:07:27;;;;;;;2.50;0.60;;;;;;;10.30;78.89;98687.13;4888957;29;20140;-68
2023/01/05 13:10:41;;;;;;;4.78;0.73;;;;;;;10.55;78.83;98702.03;4895055;29;20590;-70
2023/01/05 13:13:33;;;;;;;3.45;0.50;;;;;;;10.54;78.23;98700.34;4881077;29;20052;-70
2023/01/05 13:16:24;;;;;;;6.40;0.97;;;;;;;10.57;78.35;98694.06;4894583;29;20060;-69
2023/01/05 13:19:49;;;;;;;2.22;0.43;;;;;;;10.39;78.47;98691.75;4866514;29;20788;-69
2023/01/05 13:22:38;;;;;;;3.22;0.50;;;;;;;10.58;78.15;98712.28;4900497;29;20055;-69
2023/01/05 13:25:28;;;;;;;2.45;0.52;;;;;;;11.06;75.23;98688.91;4944142;29;20047;-70
2023/01/05 13:28:18;;;;;;;1.83;0.40;;;;;;;10.85;75.61;98689.50;4917896;28;20050;-70
2023/01/05 13:31:33;;;;;;;3.00;0.52;;;;;;;11.05;74.17;98664.47;4955082;28;20437;-70
2023/01/05 13:34:40;;;;;;;1.98;0.50;;;;;;;11.25;72.28;98685.78;4933603;29;20055;-71
2023/01/05 13:38:02;;;;;;;2.00;0.50;;;;;;;11.01;72.67;98698.88;4947276;28;20055;-69
2023/01/05 13:40:53;;;;;;;;;;;;;;;10.81;72.57;98699.38;4948106;28;20039;-70
2023/01/05 13:43:44;;;;;;;2.10;0.50;;;;;;;10.69;72.49;98710.72;4946796;28;20544;-68
2023/01/05 13:46:50;;;;;;;3.30;0.53;;;;;;;10.50;72.00;98698.88;4947119;28;20613;-67
2023/01/05 13:49:56;;;;;;;2.53;0.50;;;;;;;10.47;71.96;98730.53;4936932;29;20098;-68